Watford City, ND

7:23 PM CST on February 05, 2016 (GMT -0600)
Watford City | | Change Station
CLOSE
Current Station
Airport
Location: Watford City,
Elevation: 2110 ft
Nearby Weather Stations
Active Advisory: High Wind Warning

Elev 2110 ft 47.80 °N, 103.26 °W | Updated 8 minutes ago

Clear
Clear
27 °F
Feels Like 21 °F
N
5
Wind Variable Wind from SW

Today
High -- | Low -- °F
--% Chance of Precip.
Yesterday
High -- | Low -- °F
Precip. -- in
Pressure 30.02 in
Visibility 10.0 miles
Clouds Clear
Windchill 21 °F
Dew Point 23 °F
Humidity 86%
Rainfall 0.08 in
Snow Depth Not available.
8:15 AM 5:59 PM
Waning Crescent, 8% visible
METAR KS25 060115Z AUTO 22004KT 10SM CLR M03/M05 A3002 RMK AO2
Pressure 30.02 in
Visibility 10.0 miles
Clouds Clear
Windchill 21 °F
Dew Point 23 °F
Humidity 86%
Rainfall 0.08 in
Snow Depth Not available.
8:15 AM 5:59 PM
Waning Crescent, 8% visible
METAR KS25 060115Z AUTO 22004KT 10SM CLR M03/M05 A3002 RMK AO2

10-Day Weather Forecast

Almanac

Astronomy

Feb. 05, 2016 Rise Set
Actual Time
Civil Twilight
Nautical Twilight
Astronomical Twilight
Moon
Length of Visible Light
Length of Day
Tomorrow will be .
, % of the Moon is Illuminated

Today's Extremes

State Highs State Lows

Community

WunderPhotos

Upload Photos

1,890,904 photos uploaded!

WunderBlog® & News

Nearby

Air Quality

  Air Quality AQ Index Pollutant
Not available.

Snow Depth

Station Depth Elevation

Earthquake Activity

City Distance Mag. Time & Date
Minimum magnitude displayed is 2.5.

Coastal Water Temperatures

Place Temperature

Stations

Nearby Weather Stations

Station Location Temp. Windchill Dew Point Humidity Wind Precip. Elev Updated Type
                   

Watches & Warnings

High Wind Warning
Issued: 5:09 PM MST Feb. 5, 2016 – National Weather Service

... High Wind Warning remains in effect from noon CST /11 am MST/
Saturday to 9 PM CST /8 PM MST/ Sunday...

* timing... Saturday afternoon through Sunday afternoon.

* Winds... northwest winds gusting up to 65 mph.

* Impacts... travel may become hazardous over western North
Dakota.

Precautionary/preparedness actions...

A High Wind Warning means a hazardous high wind event is expected
or occurring. Sustained wind speeds of at least 40 mph or gusts
of 58 mph or more can lead to property damage.